sensor_id;sensor_type;location;lat;lon;timestamp;pressure;altitude;pressure_sealevel;temperature;humidity
68193;BME280;55012;47.562;18.414;2023-12-22T00:00:03;97923.88;;;4.39;100.00
68193;BME280;55012;47.562;18.414;2023-12-22T00:02:30;97904.69;;;4.37;100.00
68193;BME280;55012;47.562;18.414;2023-12-22T00:04:55;97961.69;;;4.38;100.00
68193;BME280;55012;47.562;18.414;2023-12-22T00:07:20;97989.91;;;4.35;100.00
68193;BME280;55012;47.562;18.414;2023-12-22T00:09:46;98005.97;;;4.35;100.00
68193;BME280;55012;47.562;18.414;2023-12-22T00:12:11;98026.28;;;4.36;100.00
68193;BME280;55012;47.562;18.414;2023-12-22T00:14:36;98050.03;;;4.38;100.00
68193;BME280;55012;47.562;18.414;2023-12-22T00:17:03;98107.84;;;4.39;100.00
68193;BME280;55012;47.562;18.414;2023-12-22T00:19:28;98168.44;;;4.43;100.00
68193;BME280;55012;47.562;18.414;2023-12-22T00:21:53;98181.63;;;4.48;100.00
68193;BME280;55012;47.562;18.414;2023-12-22T00:24:19;98237.38;;;4.46;100.00
68193;BME280;55012;47.562;18.414;2023-12-22T00:26:44;98212.50;;;4.46;100.00
68193;BME280;55012;47.562;18.414;2023-12-22T00:29:09;98262.75;;;4.49;100.00
68193;BME280;55012;47.562;18.414;2023-12-22T00:31:35;98283.50;;;4.52;100.00
68193;BME280;55012;47.562;18.414;2023-12-22T00:34:00;98315.97;;;4.50;100.00
68193;BME280;55012;47.562;18.414;2023-12-22T00:36:26;98347.34;;;4.50;100.00
68193;BME280;55012;47.562;18.414;2023-12-22T00:38:51;98367.19;;;4.49;100.00
68193;BME280;55012;47.562;18.414;2023-12-22T00:41:17;98351.91;;;4.49;100.00
68193;BME280;55012;47.562;18.414;2023-12-22T00:43:42;98374.91;;;4.50;100.00
68193;BME280;55012;47.562;18.414;2023-12-22T00:46:08;98392.41;;;4.48;100.00
68193;BME280;55012;47.562;18.414;2023-12-22T00:48:33;98423.75;;;4.47;100.00
68193;BME280;55012;47.562;18.414;2023-12-22T00:50:58;98460.94;;;4.49;100.00
68193;BME280;55012;47.562;18.414;2023-12-22T00:53:24;98495.41;;;4.50;100.00
68193;BME280;55012;47.562;18.414;2023-12-22T00:55:49;98519.19;;;4.52;100.00
68193;BME280;55012;47.562;18.414;2023-12-22T00:58:14;98566.63;;;4.51;100.00
68193;BME280;55012;47.562;18.414;2023-12-22T01:00:40;98593.25;;;4.48;100.00
68193;BME280;55012;47.562;18.414;2023-12-22T01:03:05;98611.06;;;4.44;100.00
68193;BME280;55012;47.562;18.414;2023-12-22T01:05:30;98633.28;;;4.44;100.00
68193;BME280;55012;47.562;18.414;2023-12-22T01:07:56;98648.88;;;4.42;100.00
68193;BME280;55012;47.562;18.414;2023-12-22T01:10:21;98659.75;;;4.37;100.00
68193;BME280;55012;47.562;18.414;2023-12-22T01:12:46;98661.19;;;4.35;100.00
68193;BME280;55012;47.562;18.414;2023-12-22T01:15:12;98698.81;;;4.30;100.00
68193;BME280;55012;47.562;18.414;2023-12-22T01:17:37;98699.31;;;4.23;100.00
68193;BME280;55012;47.562;18.414;2023-12-22T01:20:03;100899.50;;;4.24;100.00
68193;BME280;55012;47.562;18.414;2023-12-22T01:22:28;100979.31;;;4.22;100.00
68193;BME280;55012;47.562;18.414;2023-12-22T01:24:56;101026.72;;;4.21;100.00
68193;BME280;55012;47.562;18.414;2023-12-22T01:27:21;101108.13;;;4.20;100.00
68193;BME280;55012;47.562;18.414;2023-12-22T01:29:46;101185.78;;;4.15;100.00
68193;BME280;55012;47.562;18.414;2023-12-22T01:32:12;101249.81;;;4.17;100.00
68193;BME280;55012;47.562;18.414;2023-12-22T01:34:37;101326.94;;;4.15;100.00
68193;BME280;55012;47.562;18.414;2023-12-22T01:37:03;101572.00;;;4.12;100.00
68193;BME280;55012;47.562;18.414;2023-12-22T01:39:28;101567.53;;;4.18;100.00
68193;BME280;55012;47.562;18.414;2023-12-22T01:41:53;101687.38;;;4.22;100.00
68193;BME280;55012;47.562;18.414;2023-12-22T01:44:19;101606.19;;;4.22;100.00
68193;BME280;55012;47.562;18.414;2023-12-22T01:46:44;101562.56;;;4.27;100.00
68193;BME280;55012;47.562;18.414;2023-12-22T01:49:10;101580.25;;;4.28;100.00
68193;BME280;55012;47.562;18.414;2023-12-22T01:51:37;101585.31;;;4.24;100.00
68193;BME280;55012;47.562;18.414;2023-12-22T01:54:05;101596.84;;;4.25;100.00
68193;BME280;55012;47.562;18.414;2023-12-22T01:56:31;101648.00;;;4.23;100.00
68193;BME280;55012;47.562;18.414;2023-12-22T01:58:59;101691.31;;;4.20;100.00
68193;BME280;55012;47.562;18.414;2023-12-22T02:01:25;101662.84;;;4.14;100.00
68193;BME280;55012;47.562;18.414;2023-12-22T02:03:53;101661.13;;;4.08;100.00
68193;BME280;55012;47.562;18.414;2023-12-22T02:06:19;101662.91;;;4.02;100.00
68193;BME280;55012;47.562;18.414;2023-12-22T02:08:48;101508.63;;;4.01;100.00
68193;BME280;55012;47.562;18.414;2023-12-22T02:11:14;98532.75;;;4.00;100.00
68193;BME280;55012;47.562;18.414;2023-12-22T02:13:41;98590.22;;;3.94;100.00
68193;BME280;55012;47.562;18.414;2023-12-22T02:16:13;98589.88;;;3.95;100.00
68193;BME280;55012;47.562;18.414;2023-12-22T02:18:43;98634.13;;;3.93;100.00
68193;BME280;55012;47.562;18.414;2023-12-22T02:21:11;98590.53;;;3.92;100.00
68193;BME280;55012;47.562;18.414;2023-12-22T02:23:36;98609.72;;;3.94;100.00
68193;BME280;55012;47.562;18.414;2023-12-22T02:26:09;98606.59;;;3.92;100.00
68193;BME280;55012;47.562;18.414;2023-12-22T02:28:37;98555.09;;;3.95;100.00
68193;BME280;55012;47.562;18.414;2023-12-22T02:31:28;98552.28;;;3.92;100.00
68193;BME280;55012;47.562;18.414;2023-12-22T02:33:58;98516.72;;;3.91;100.00
68193;BME280;55012;47.562;18.414;2023-12-22T02:36:25;98512.47;;;3.90;100.00
68193;BME280;55012;47.562;18.414;2023-12-22T02:38:53;98498.75;;;4.01;100.00
68193;BME280;55012;47.562;18.414;2023-12-22T02:41:20;98369.50;;;4.00;100.00
68193;BME280;55012;47.562;18.414;2023-12-22T02:43:46;98282.91;;;4.05;100.00
68193;BME280;55012;47.562;18.414;2023-12-22T02:46:15;98021.03;;;4.15;100.00
68193;BME280;55012;47.562;18.414;2023-12-22T02:48:41;97928.44;;;4.27;100.00
68193;BME280;55012;47.562;18.414;2023-12-22T02:51:06;97733.81;;;4.27;100.00
68193;BME280;55012;47.562;18.414;2023-12-22T02:53:31;97647.66;;;4.37;100.00
68193;BME280;55012;47.562;18.414;2023-12-22T02:55:57;97601.84;;;4.39;100.00
68193;BME280;55012;47.562;18.414;2023-12-22T02:58:22;97665.41;;;4.42;100.00
68193;BME280;55012;47.562;18.414;2023-12-22T03:00:47;97806.84;;;4.40;100.00
68193;BME280;55012;47.562;18.414;2023-12-22T03:03:13;97957.09;;;4.38;100.00
68193;BME280;55012;47.562;18.414;2023-12-22T03:05:38;97946.63;;;4.33;100.00
68193;BME280;55012;47.562;18.414;2023-12-22T03:08:04;98002.41;;;4.31;100.00
68193;BME280;55012;47.562;18.414;2023-12-22T03:10:30;98032.75;;;4.23;100.00
68193;BME280;55012;47.562;18.414;2023-12-22T03:12:55;98110.38;;;4.23;100.00
68193;BME280;55012;47.562;18.414;2023-12-22T03:15:21;98061.28;;;4.19;100.00
68193;BME280;55012;47.562;18.414;2023-12-22T03:17:46;98080.34;;;4.17;100.00
68193;BME280;55012;47.562;18.414;2023-12-22T03:20:11;98084.13;;;4.16;100.00
68193;BME280;55012;47.562;18.414;2023-12-22T03:22:37;98030.16;;;4.14;100.00
68193;BME280;55012;47.562;18.414;2023-12-22T03:25:02;98026.91;;;4.09;100.00
68193;BME280;55012;47.562;18.414;2023-12-22T03:27:27;98016.28;;;4.00;100.00
68193;BME280;55012;47.562;18.414;2023-12-22T03:29:53;97963.66;;;3.92;100.00
68193;BME280;55012;47.562;18.414;2023-12-22T03:32:18;97958.66;;;3.90;100.00
68193;BME280;55012;47.562;18.414;2023-12-22T03:34:44;97946.25;;;3.86;100.00
68193;BME280;55012;47.562;18.414;2023-12-22T03:37:09;97921.50;;;3.77;100.00
68193;BME280;55012;47.562;18.414;2023-12-22T03:39:35;97907.69;;;3.75;100.00
68193;BME280;55012;47.562;18.414;2023-12-22T03:42:00;97927.72;;;3.69;100.00
68193;BME280;55012;47.562;18.414;2023-12-22T03:44:26;97919.00;;;3.59;100.00
68193;BME280;55012;47.562;18.414;2023-12-22T03:46:51;97937.03;;;3.50;100.00
68193;BME280;55012;47.562;18.414;2023-12-22T03:49:16;97915.66;;;3.50;100.00
68193;BME280;55012;47.562;18.414;2023-12-22T03:51:42;97901.06;;;3.48;100.00
68193;BME280;55012;47.562;18.414;2023-12-22T03:54:07;97895.56;;;3.44;100.00
68193;BME280;55012;47.562;18.414;2023-12-22T03:56:33;97898.91;;;3.41;100.00
68193;BME280;55012;47.562;18.414;2023-12-22T03:58:58;97910.25;;;3.38;100.00
68193;BME280;55012;47.562;18.414;2023-12-22T04:01:23;97907.47;;;3.34;100.00
68193;BME280;55012;47.562;18.414;2023-12-22T04:03:49;97864.25;;;3.32;100.00
68193;BME280;55012;47.562;18.414;2023-12-22T04:06:14;97882.97;;;3.32;100.00
68193;BME280;55012;47.562;18.414;2023-12-22T04:08:40;97901.19;;;3.30;100.00
68193;BME280;55012;47.562;18.414;2023-12-22T04:11:05;97911.38;;;3.37;100.00
68193;BME280;55012;47.562;18.414;2023-12-22T04:13:30;97913.06;;;3.42;100.00
68193;BME280;55012;47.562;18.414;2023-12-22T04:15:56;97906.94;;;3.41;100.00
68193;BME280;55012;47.562;18.414;2023-12-22T04:18:21;97923.94;;;3.36;100.00
68193;BME280;55012;47.562;18.414;2023-12-22T04:20:46;97879.53;;;3.32;100.00
68193;BME280;55012;47.562;18.414;2023-12-22T04:23:14;97915.34;;;3.31;100.00
68193;BME280;55012;47.562;18.414;2023-12-22T04:25:40;97902.66;;;3.28;100.00
68193;BME280;55012;47.562;18.414;2023-12-22T04:28:05;97892.75;;;3.28;100.00
68193;BME280;55012;47.562;18.414;2023-12-22T04:30:30;97857.03;;;3.33;100.00
68193;BME280;55012;47.562;18.414;2023-12-22T04:32:56;97890.75;;;3.37;100.00
68193;BME280;55012;47.562;18.414;2023-12-22T04:35:21;97879.63;;;3.35;100.00
68193;BME280;55012;47.562;18.414;2023-12-22T04:37:47;97864.03;;;3.37;100.00
68193;BME280;55012;47.562;18.414;2023-12-22T04:40:12;97845.44;;;3.41;100.00
68193;BME280;55012;47.562;18.414;2023-12-22T04:42:37;97840.88;;;3.42;100.00
68193;BME280;55012;47.562;18.414;2023-12-22T04:45:03;97814.50;;;3.40;100.00
68193;BME280;55012;47.562;18.414;2023-12-22T04:47:28;97817.59;;;3.42;100.00
68193;BME280;55012;47.562;18.414;2023-12-22T04:49:53;97863.84;;;3.43;100.00
68193;BME280;55012;47.562;18.414;2023-12-22T04:52:19;97821.06;;;3.43;100.00
68193;BME280;55012;47.562;18.414;2023-12-22T04:54:44;97798.75;;;3.38;100.00
68193;BME280;55012;47.562;18.414;2023-12-22T04:57:09;97795.22;;;3.34;100.00
68193;BME280;55012;47.562;18.414;2023-12-22T04:59:35;97794.00;;;3.32;100.00
68193;BME280;55012;47.562;18.414;2023-12-22T05:02:00;97782.97;;;3.33;100.00
68193;BME280;55012;47.562;18.414;2023-12-22T05:04:25;97788.31;;;3.33;100.00
68193;BME280;55012;47.562;18.414;2023-12-22T05:06:51;97766.50;;;3.31;100.00
68193;BME280;55012;47.562;18.414;2023-12-22T05:09:16;97749.78;;;3.34;100.00
68193;BME280;55012;47.562;18.414;2023-12-22T05:11:42;97745.53;;;3.33;100.00
68193;BME280;55012;47.562;18.414;2023-12-22T05:14:07;97753.44;;;3.30;100.00
68193;BME280;55012;47.562;18.414;2023-12-22T05:16:32;97738.75;;;3.24;100.00
68193;BME280;55012;47.562;18.414;2023-12-22T05:18:58;97718.78;;;3.21;100.00
68193;BME280;55012;47.562;18.414;2023-12-22T05:21:24;97743.41;;;3.15;100.00
68193;BME280;55012;47.562;18.414;2023-12-22T05:23:50;97726.81;;;3.09;100.00
68193;BME280;55012;47.562;18.414;2023-12-22T05:26:21;97782.78;;;3.05;100.00
68193;BME280;55012;47.562;18.414;2023-12-22T05:28:47;97717.44;;;3.03;100.00
68193;BME280;55012;47.562;18.414;2023-12-22T05:31:15;97737.38;;;3.05;100.00
68193;BME280;55012;47.562;18.414;2023-12-22T05:33:40;97732.69;;;3.02;100.00
68193;BME280;55012;47.562;18.414;2023-12-22T05:36:06;97759.75;;;3.13;100.00
68193;BME280;55012;47.562;18.414;2023-12-22T05:38:31;97719.25;;;3.23;100.00
68193;BME280;55012;47.562;18.414;2023-12-22T05:40:57;97753.91;;;3.32;100.00
68193;BME280;55012;47.562;18.414;2023-12-22T05:43:22;97679.81;;;3.45;100.00
68193;BME280;55012;47.562;18.414;2023-12-22T05:45:48;97630.94;;;3.44;100.00
68193;BME280;55012;47.562;18.414;2023-12-22T05:48:13;97681.28;;;3.42;100.00
68193;BME280;55012;47.562;18.414;2023-12-22T05:50:38;97663.34;;;3.43;100.00
68193;BME280;55012;47.562;18.414;2023-12-22T05:53:04;97615.13;;;3.39;100.00
68193;BME280;55012;47.562;18.414;2023-12-22T05:55:29;97598.44;;;3.30;100.00
68193;BME280;55012;47.562;18.414;2023-12-22T05:57:55;97595.88;;;3.21;100.00
68193;BME280;55012;47.562;18.414;2023-12-22T06:00:21;97638.41;;;3.14;100.00
68193;BME280;55012;47.562;18.414;2023-12-22T06:02:46;97641.06;;;3.14;100.00
68193;BME280;55012;47.562;18.414;2023-12-22T06:05:12;97599.13;;;3.15;100.00
68193;BME280;55012;47.562;18.414;2023-12-22T06:07:37;97627.84;;;3.18;100.00
68193;BME280;55012;47.562;18.414;2023-12-22T06:10:02;97609.81;;;3.15;100.00
68193;BME280;55012;47.562;18.414;2023-12-22T06:12:28;97608.38;;;3.17;100.00
68193;BME280;55012;47.562;18.414;2023-12-22T06:14:53;97643.09;;;3.17;100.00
68193;BME280;55012;47.562;18.414;2023-12-22T06:17:18;97588.97;;;3.20;100.00
68193;BME280;55012;47.562;18.414;2023-12-22T06:19:44;97629.41;;;3.19;100.00
68193;BME280;55012;47.562;18.414;2023-12-22T06:22:09;97568.72;;;3.19;100.00
68193;BME280;55012;47.562;18.414;2023-12-22T06:24:35;97596.66;;;3.22;100.00
68193;BME280;55012;47.562;18.414;2023-12-22T06:27:01;97578.28;;;3.20;100.00
68193;BME280;55012;47.562;18.414;2023-12-22T06:29:26;97552.59;;;3.16;100.00
68193;BME280;55012;47.562;18.414;2023-12-22T06:31:52;97586.78;;;3.10;100.00
68193;BME280;55012;47.562;18.414;2023-12-22T06:34:17;97629.84;;;3.08;100.00
68193;BME280;55012;47.562;18.414;2023-12-22T06:36:42;97612.94;;;3.04;100.00
68193;BME280;55012;47.562;18.414;2023-12-22T06:39:08;97665.69;;;3.07;100.00
68193;BME280;55012;47.562;18.414;2023-12-22T06:41:33;97659.59;;;3.07;100.00
68193;BME280;55012;47.562;18.414;2023-12-22T06:43:59;97662.81;;;3.00;100.00
68193;BME280;55012;47.562;18.414;2023-12-22T06:46:25;97673.34;;;2.97;100.00
68193;BME280;55012;47.562;18.414;2023-12-22T06:48:57;97678.94;;;2.92;100.00
68193;BME280;55012;47.562;18.414;2023-12-22T06:51:23;97692.16;;;2.88;100.00
68193;BME280;55012;47.562;18.414;2023-12-22T06:53:49;97711.53;;;2.85;100.00
68193;BME280;55012;47.562;18.414;2023-12-22T06:56:19;97716.09;;;2.85;100.00
68193;BME280;55012;47.562;18.414;2023-12-22T06:58:46;97722.88;;;2.82;100.00
68193;BME280;55012;47.562;18.414;2023-12-22T07:03:53;97782.84;;;2.85;100.00
68193;BME280;55012;47.562;18.414;2023-12-22T07:06:19;97825.25;;;2.86;100.00
68193;BME280;55012;47.562;18.414;2023-12-22T07:11:36;97836.53;;;3.04;100.00
68193;BME280;55012;47.562;18.414;2023-12-22T07:14:02;97830.00;;;3.14;100.00
68193;BME280;55012;47.562;18.414;2023-12-22T07:16:27;97832.91;;;3.21;100.00
68193;BME280;55012;47.562;18.414;2023-12-22T07:18:54;97829.59;;;3.24;100.00
68193;BME280;55012;47.562;18.414;2023-12-22T07:21:19;97836.50;;;3.25;100.00
68193;BME280;55012;47.562;18.414;2023-12-22T07:23:45;97862.13;;;3.26;100.00
68193;BME280;55012;47.562;18.414;2023-12-22T07:26:10;97866.16;;;3.32;100.00
68193;BME280;55012;47.562;18.414;2023-12-22T07:28:36;97893.78;;;3.36;100.00
68193;BME280;55012;47.562;18.414;2023-12-22T07:31:01;97894.53;;;3.36;100.00
68193;BME280;55012;47.562;18.414;2023-12-22T07:33:27;97888.09;;;3.37;100.00
68193;BME280;55012;47.562;18.414;2023-12-22T07:35:52;97934.91;;;3.44;100.00
68193;BME280;55012;47.562;18.414;2023-12-22T07:38:17;97940.69;;;3.46;100.00
68193;BME280;55012;47.562;18.414;2023-12-22T07:40:42;97898.50;;;3.51;100.00
68193;BME280;55012;47.562;18.414;2023-12-22T07:43:08;97929.25;;;3.57;100.00
68193;BME280;55012;47.562;18.414;2023-12-22T07:45:33;97911.00;;;3.59;100.00
68193;BME280;55012;47.562;18.414;2023-12-22T07:47:59;97909.19;;;3.63;100.00
68193;BME280;55012;47.562;18.414;2023-12-22T07:50:25;97927.03;;;3.72;100.00
68193;BME280;55012;47.562;18.414;2023-12-22T07:52:50;97875.94;;;3.73;100.00
68193;BME280;55012;47.562;18.414;2023-12-22T07:55:15;97851.19;;;3.76;100.00
68193;BME280;55012;47.562;18.414;2023-12-22T07:57:41;97815.97;;;3.74;100.00
68193;BME280;55012;47.562;18.414;2023-12-22T08:00:07;97809.94;;;3.77;100.00
68193;BME280;55012;47.562;18.414;2023-12-22T08:02:34;97822.97;;;3.79;100.00
68193;BME280;55012;47.562;18.414;2023-12-22T08:04:59;97812.75;;;3.81;100.00
68193;BME280;55012;47.562;18.414;2023-12-22T08:07:25;97810.16;;;3.84;100.00
68193;BME280;55012;47.562;18.414;2023-12-22T08:09:50;97793.56;;;3.91;100.00
68193;BME280;55012;47.562;18.414;2023-12-22T08:12:15;97792.66;;;3.99;100.00
68193;BME280;55012;47.562;18.414;2023-12-22T08:14:41;97789.75;;;4.04;100.00
68193;BME280;55012;47.562;18.414;2023-12-22T08:17:06;97798.75;;;4.12;100.00
68193;BME280;55012;47.562;18.414;2023-12-22T08:19:31;97793.41;;;4.24;100.00
68193;BME280;55012;47.562;18.414;2023-12-22T08:21:57;97770.72;;;4.34;100.00
68193;BME280;55012;47.562;18.414;2023-12-22T08:24:22;97738.13;;;4.44;100.00
68193;BME280;55012;47.562;18.414;2023-12-22T08:26:48;97727.38;;;4.56;100.00
68193;BME280;55012;47.562;18.414;2023-12-22T08:29:14;97749.06;;;4.67;100.00
68193;BME280;55012;47.562;18.414;2023-12-22T08:31:39;97731.28;;;4.74;100.00
68193;BME280;55012;47.562;18.414;2023-12-22T08:34:05;97699.16;;;4.74;100.00
68193;BME280;55012;47.562;18.414;2023-12-22T08:36:31;97661.81;;;4.82;100.00
68193;BME280;55012;47.562;18.414;2023-12-22T08:38:56;97703.22;;;4.84;100.00
68193;BME280;55012;47.562;18.414;2023-12-22T08:41:21;97660.00;;;4.86;100.00
68193;BME280;55012;47.562;18.414;2023-12-22T08:43:47;97630.94;;;4.88;100.00
68193;BME280;55012;47.562;18.414;2023-12-22T08:46:12;97634.34;;;4.85;100.00
68193;BME280;55012;47.562;18.414;2023-12-22T08:48:38;97658.69;;;4.79;100.00
68193;BME280;55012;47.562;18.414;2023-12-22T08:51:03;97670.88;;;4.77;100.00
68193;BME280;55012;47.562;18.414;2023-12-22T08:53:29;97633.47;;;4.81;100.00
68193;BME280;55012;47.562;18.414;2023-12-22T08:55:59;97612.13;;;4.84;100.00
68193;BME280;55012;47.562;18.414;2023-12-22T08:58:26;97601.94;;;4.90;100.00
68193;BME280;55012;47.562;18.414;2023-12-22T09:00:51;97558.34;;;4.93;100.00
68193;BME280;55012;47.562;18.414;2023-12-22T09:03:17;97598.19;;;4.94;100.00
68193;BME280;55012;47.562;18.414;2023-12-22T09:05:42;97593.59;;;4.95;100.00
68193;BME280;55012;47.562;18.414;2023-12-22T09:08:07;97575.22;;;4.93;100.00
68193;BME280;55012;47.562;18.414;2023-12-22T09:10:32;97581.34;;;4.94;100.00
68193;BME280;55012;47.562;18.414;2023-12-22T09:12:58;97579.88;;;4.96;100.00
68193;BME280;55012;47.562;18.414;2023-12-22T09:15:23;97575.63;;;4.95;100.00
68193;BME280;55012;47.562;18.414;2023-12-22T09:17:49;97600.09;;;4.94;100.00
68193;BME280;55012;47.562;18.414;2023-12-22T09:20:16;97609.00;;;4.98;100.00
68193;BME280;55012;47.562;18.414;2023-12-22T09:22:42;97614.78;;;5.00;100.00
68193;BME280;55012;47.562;18.414;2023-12-22T09:25:07;97625.94;;;5.02;100.00
68193;BME280;55012;47.562;18.414;2023-12-22T09:27:34;97626.81;;;5.06;100.00
68193;BME280;55012;47.562;18.414;2023-12-22T09:29:59;97631.03;;;5.07;100.00
68193;BME280;55012;47.562;18.414;2023-12-22T09:32:24;97649.03;;;5.06;100.00
68193;BME280;55012;47.562;18.414;2023-12-22T09:34:50;97639.75;;;5.04;100.00
68193;BME280;55012;47.562;18.414;2023-12-22T09:37:15;97669.16;;;5.00;100.00
68193;BME280;55012;47.562;18.414;2023-12-22T09:39:40;97668.47;;;5.03;100.00
68193;BME280;55012;47.562;18.414;2023-12-22T09:42:06;97688.72;;;5.01;100.00
68193;BME280;55012;47.562;18.414;2023-12-22T09:44:32;97705.38;;;4.94;100.00
68193;BME280;55012;47.562;18.414;2023-12-22T09:47:03;97693.81;;;4.90;100.00
68193;BME280;55012;47.562;18.414;2023-12-22T09:49:29;97739.72;;;4.89;100.00
68193;BME280;55012;47.562;18.414;2023-12-22T09:51:56;97723.72;;;4.92;100.00
68193;BME280;55012;47.562;18.414;2023-12-22T09:54:22;97729.50;;;4.94;100.00
68193;BME280;55012;47.562;18.414;2023-12-22T09:56:48;97727.59;;;4.95;100.00
68193;BME280;55012;47.562;18.414;2023-12-22T09:59:17;97708.41;;;4.93;100.00
68193;BME280;55012;47.562;18.414;2023-12-22T10:01:44;97707.22;;;4.90;100.00
68193;BME280;55012;47.562;18.414;2023-12-22T10:04:11;97705.31;;;4.91;100.00
68193;BME280;55012;47.562;18.414;2023-12-22T10:06:37;97677.91;;;4.97;100.00
68193;BME280;55012;47.562;18.414;2023-12-22T10:09:04;97656.53;;;5.01;100.00
68193;BME280;55012;47.562;18.414;2023-12-22T10:11:32;97698.41;;;5.05;100.00
68193;BME280;55012;47.562;18.414;2023-12-22T10:13:59;97667.78;;;5.06;100.00
68193;BME280;55012;47.562;18.414;2023-12-22T10:16:25;97603.81;;;5.05;100.00
68193;BME280;55012;47.562;18.414;2023-12-22T10:18:51;97623.06;;;5.11;100.00
68193;BME280;55012;47.562;18.414;2023-12-22T10:21:16;97618.31;;;5.20;100.00
68193;BME280;55012;47.562;18.414;2023-12-22T10:23:42;97593.66;;;5.30;100.00
68193;BME280;55012;47.562;18.414;2023-12-22T10:26:11;97602.97;;;5.36;100.00
68193;BME280;55012;47.562;18.414;2023-12-22T10:28:36;97587.94;;;5.31;100.00
68193;BME280;55012;47.562;18.414;2023-12-22T10:31:02;97582.13;;;5.29;100.00
68193;BME280;55012;47.562;18.414;2023-12-22T10:33:32;97606.78;;;5.35;100.00
68193;BME280;55012;47.562;18.414;2023-12-22T10:35:58;97595.13;;;5.27;100.00
68193;BME280;55012;47.562;18.414;2023-12-22T10:38:25;97593.06;;;5.21;100.00
68193;BME280;55012;47.562;18.414;2023-12-22T10:40:51;97608.53;;;5.12;100.00
68193;BME280;55012;47.562;18.414;2023-12-22T10:43:17;97635.28;;;5.08;100.00
68193;BME280;55012;47.562;18.414;2023-12-22T10:45:42;97646.78;;;5.08;100.00
68193;BME280;55012;47.562;18.414;2023-12-22T10:48:07;97661.72;;;5.10;100.00
68193;BME280;55012;47.562;18.414;2023-12-22T10:50:33;97696.31;;;5.15;100.00
68193;BME280;55012;47.562;18.414;2023-12-22T10:52:58;97642.78;;;5.18;100.00
68193;BME280;55012;47.562;18.414;2023-12-22T10:55:24;97624.19;;;5.25;100.00
68193;BME280;55012;47.562;18.414;2023-12-22T10:57:49;97603.94;;;5.28;100.00
68193;BME280;55012;47.562;18.414;2023-12-22T11:00:16;97595.63;;;5.33;100.00
68193;BME280;55012;47.562;18.414;2023-12-22T11:02:42;97560.94;;;5.40;100.00
68193;BME280;55012;47.562;18.414;2023-12-22T11:05:10;97570.59;;;5.45;100.00
68193;BME280;55012;47.562;18.414;2023-12-22T11:07:37;97578.00;;;5.51;100.00
68193;BME280;55012;47.562;18.414;2023-12-22T11:10:05;97561.19;;;5.54;100.00
68193;BME280;55012;47.562;18.414;2023-12-22T11:12:34;97604.56;;;5.56;100.00
68193;BME280;55012;47.562;18.414;2023-12-22T11:15:01;97528.59;;;5.52;100.00
68193;BME280;55012;47.562;18.414;2023-12-22T11:17:28;97493.31;;;5.50;100.00
68193;BME280;55012;47.562;18.414;2023-12-22T11:19:55;97508.69;;;5.53;100.00
68193;BME280;55012;47.562;18.414;2023-12-22T11:22:22;97527.56;;;5.57;100.00
68193;BME280;55012;47.562;18.414;2023-12-22T11:24:48;97588.94;;;5.62;100.00
68193;BME280;55012;47.562;18.414;2023-12-22T11:27:18;97541.13;;;5.64;100.00
68193;BME280;55012;47.562;18.414;2023-12-22T11:29:48;97561.13;;;5.70;100.00
68193;BME280;55012;47.562;18.414;2023-12-22T11:32:18;97592.28;;;5.75;100.00
68193;BME280;55012;47.562;18.414;2023-12-22T11:34:45;97548.72;;;5.81;100.00
68193;BME280;55012;47.562;18.414;2023-12-22T11:37:15;97595.38;;;5.77;100.00
68193;BME280;55012;47.562;18.414;2023-12-22T11:39:44;97484.84;;;5.68;100.00
68193;BME280;55012;47.562;18.414;2023-12-22T11:42:14;97544.47;;;5.61;100.00
68193;BME280;55012;47.562;18.414;2023-12-22T11:44:41;97519.56;;;5.60;100.00
68193;BME280;55012;47.562;18.414;2023-12-22T11:47:08;97555.31;;;5.64;100.00
68193;BME280;55012;47.562;18.414;2023-12-22T11:49:35;97551.84;;;5.64;100.00
68193;BME280;55012;47.562;18.414;2023-12-22T11:52:17;97554.06;;;5.62;100.00
68193;BME280;55012;47.562;18.414;2023-12-22T11:54:51;97523.88;;;5.65;100.00
68193;BME280;55012;47.562;18.414;2023-12-22T12:02:26;97506.00;;;5.53;100.00
68193;BME280;55012;47.562;18.414;2023-12-22T12:04:57;97494.72;;;5.44;100.00
68193;BME280;55012;47.562;18.414;2023-12-22T12:07:44;97441.41;;;5.39;100.00
68193;BME280;55012;47.562;18.414;2023-12-22T12:13:11;97463.19;;;5.38;100.00
68193;BME280;55012;47.562;18.414;2023-12-22T12:15:38;97410.34;;;5.38;100.00
68193;BME280;55012;47.562;18.414;2023-12-22T12:18:04;97413.88;;;5.42;100.00
68193;BME280;55012;47.562;18.414;2023-12-22T12:20:31;97408.88;;;5.41;100.00
68193;BME280;55012;47.562;18.414;2023-12-22T12:22:57;97370.69;;;5.47;100.00
68193;BME280;55012;47.562;18.414;2023-12-22T12:25:23;97421.31;;;5.52;100.00
68193;BME280;55012;47.562;18.414;2023-12-22T12:28:28;97446.69;;;5.55;100.00
68193;BME280;55012;47.562;18.414;2023-12-22T12:31:02;97370.09;;;5.57;100.00
68193;BME280;55012;47.562;18.414;2023-12-22T12:33:28;97434.63;;;5.68;100.00
68193;BME280;55012;47.562;18.414;2023-12-22T12:35:56;97362.81;;;5.81;100.00
68193;BME280;55012;47.562;18.414;2023-12-22T12:38:28;97377.59;;;5.94;100.00
68193;BME280;55012;47.562;18.414;2023-12-22T12:41:03;97355.06;;;5.99;100.00
68193;BME280;55012;47.562;18.414;2023-12-22T12:43:29;97319.50;;;6.05;100.00
68193;BME280;55012;47.562;18.414;2023-12-22T12:45:54;97378.59;;;6.09;100.00
68193;BME280;55012;47.562;18.414;2023-12-22T12:48:21;97364.94;;;6.17;100.00
68193;BME280;55012;47.562;18.414;2023-12-22T12:50:47;97388.03;;;6.22;100.00
68193;BME280;55012;47.562;18.414;2023-12-22T12:53:13;97293.22;;;6.18;100.00
68193;BME280;55012;47.562;18.414;2023-12-22T12:55:38;97385.59;;;6.13;100.00
68193;BME280;55012;47.562;18.414;2023-12-22T12:58:04;97299.59;;;6.06;100.00